createdAt,value
2017-09-27T00:00:40.401Z,13.10
2017-09-27T00:01:43.693Z,13.20
2017-09-27T00:02:46.139Z,13.10
2017-09-27T00:03:48.609Z,13.10
2017-09-27T00:04:51.129Z,13.10
2017-09-27T00:05:53.623Z,13.10
2017-09-27T00:06:56.190Z,13.10
2017-09-27T00:07:58.824Z,13.10
2017-09-27T00:09:01.290Z,13.20
2017-09-27T00:10:03.858Z,13.20
2017-09-27T00:11:07.088Z,13.20
2017-09-27T00:12:10.444Z,13.20
2017-09-27T00:13:13.737Z,13.20
2017-09-27T00:14:16.220Z,13.20
2017-09-27T00:15:18.751Z,13.10
2017-09-27T00:16:21.381Z,13.10
2017-09-27T00:17:23.943Z,13.10
2017-09-27T00:18:26.464Z,13.10
2017-09-27T00:19:29.004Z,13.10
2017-09-27T00:20:31.468Z,13.10
2017-09-27T00:21:33.964Z,13.10
2017-09-27T00:22:36.430Z,13.10
2017-09-27T00:23:38.960Z,13.10
2017-09-27T00:24:41.474Z,13.10
2017-09-27T00:25:44.016Z,13.10
2017-09-27T00:26:46.532Z,13.10
2017-09-27T00:27:49.062Z,13.10
2017-09-27T00:28:51.642Z,13.10
2017-09-27T00:29:54.119Z,13.10
2017-09-27T00:30:56.623Z,13.10
2017-09-27T00:31:59.874Z,13.10
2017-09-27T00:33:02.412Z,13.10
2017-09-27T00:34:04.897Z,13.10
2017-09-27T00:35:07.417Z,13.10
2017-09-27T00:36:09.881Z,13.10
2017-09-27T00:37:12.356Z,13.10
2017-09-27T00:38:14.974Z,13.10
2017-09-27T00:39:17.482Z,13.10
2017-09-27T00:40:20.023Z,13.10
2017-09-27T00:41:22.509Z,13.10
2017-09-27T00:42:24.991Z,13.10
2017-09-27T00:43:27.515Z,13.10
2017-09-27T00:44:29.985Z,13.10
2017-09-27T00:45:32.497Z,13.10
2017-09-27T00:46:35.798Z,13.20
2017-09-27T00:47:38.703Z,13.10
2017-09-27T00:48:41.204Z,13.20
2017-09-27T00:49:44.474Z,13.20
2017-09-27T00:50:46.992Z,13.10
2017-09-27T00:51:49.610Z,13.10
2017-09-27T00:52:52.074Z,13.20
2017-09-27T00:53:54.539Z,13.10
2017-09-27T00:54:59.192Z,13.10
2017-09-27T00:56:03.664Z,13.10
2017-09-27T00:57:06.262Z,13.10
2017-09-27T00:58:08.767Z,13.10
2017-09-27T00:59:11.272Z,13.10
2017-09-27T01:00:13.730Z,13.10
2017-09-27T01:01:16.238Z,13.10
2017-09-27T01:02:18.779Z,13.10
2017-09-27T01:03:21.386Z,13.10
2017-09-27T01:04:23.870Z,13.10
2017-09-27T01:05:26.443Z,13.10
2017-09-27T01:06:28.914Z,13.10
2017-09-27T01:07:31.387Z,13.10
2017-09-27T01:08:33.896Z,13.10
2017-09-27T01:09:37.134Z,13.10
2017-09-27T01:10:40.405Z,13.10
2017-09-27T01:11:42.884Z,13.10
2017-09-27T01:12:45.354Z,13.10
2017-09-27T01:13:47.962Z,13.10
2017-09-27T01:14:51.191Z,13.10
2017-09-27T01:15:54.446Z,13.10
2017-09-27T01:16:57.674Z,13.10
2017-09-27T01:18:00.927Z,13.10
2017-09-27T01:19:04.197Z,13.10
2017-09-27T01:20:06.671Z,13.10
2017-09-27T01:21:09.246Z,13.10
2017-09-27T01:22:11.722Z,13.10
2017-09-27T01:23:14.289Z,13.10
2017-09-27T01:24:16.798Z,13.10
2017-09-27T01:25:20.072Z,13.10
2017-09-27T01:26:22.561Z,13.10
2017-09-27T01:27:25.799Z,13.10
2017-09-27T01:28:29.052Z,13.10
2017-09-27T01:29:32.381Z,13.10
2017-09-27T01:30:34.931Z,13.10
2017-09-27T01:31:37.387Z,13.10
2017-09-27T01:32:39.851Z,13.10
2017-09-27T01:33:42.336Z,13.10
2017-09-27T01:34:44.835Z,13.10
2017-09-27T01:35:47.301Z,13.10
2017-09-27T01:36:49.787Z,13.10
2017-09-27T01:37:52.315Z,13.10
2017-09-27T01:38:54.819Z,13.20
2017-09-27T01:39:58.061Z,13.20
2017-09-27T01:41:01.300Z,13.20
2017-09-27T01:42:04.532Z,13.20
2017-09-27T01:43:07.100Z,13.20
2017-09-27T01:44:09.575Z,13.20
2017-09-27T01:45:12.037Z,13.20
2017-09-27T01:46:15.258Z,13.10
2017-09-27T01:47:17.758Z,13.10
2017-09-27T01:48:20.278Z,13.10
2017-09-27T01:49:22.769Z,13.10
2017-09-27T01:50:25.230Z,13.10
2017-09-27T01:51:27.727Z,13.10
2017-09-27T01:52:30.227Z,13.10
2017-09-27T01:53:32.701Z,13.10
2017-09-27T01:54:35.171Z,13.10
2017-09-27T01:55:38.423Z,13.10
2017-09-27T01:56:40.928Z,13.10
2017-09-27T01:57:43.598Z,13.10
2017-09-27T01:58:46.278Z,13.20
2017-09-27T01:59:48.762Z,13.20
2017-09-27T02:00:51.259Z,13.20
2017-09-27T02:01:53.732Z,13.10
2017-09-27T02:02:56.210Z,13.10
2017-09-27T02:03:58.706Z,13.10
2017-09-27T02:05:01.162Z,13.10
2017-09-27T02:06:03.650Z,13.10
2017-09-27T02:07:06.239Z,13.10
2017-09-27T02:08:08.721Z,13.10
2017-09-27T02:09:11.986Z,13.10
2017-09-27T02:10:14.469Z,13.10
2017-09-27T02:11:16.956Z,13.10
2017-09-27T02:12:19.436Z,13.10
2017-09-27T02:13:22.657Z,13.10
2017-09-27T02:14:25.171Z,13.00
2017-09-27T02:15:27.637Z,13.10
2017-09-27T02:16:30.175Z,13.10
2017-09-27T02:17:32.695Z,13.10
2017-09-27T02:18:35.153Z,13.10
2017-09-27T02:19:37.687Z,13.10
2017-09-27T02:20:40.174Z,13.10
2017-09-27T02:21:42.641Z,13.10
2017-09-27T02:22:45.101Z,13.10
2017-09-27T02:23:48.362Z,13.10
2017-09-27T02:24:50.850Z,13.10
2017-09-27T02:25:53.311Z,13.10
2017-09-27T02:26:55.851Z,13.10
2017-09-27T02:27:58.487Z,13.10
2017-09-27T02:29:00.968Z,13.10
2017-09-27T02:30:04.328Z,13.10
2017-09-27T02:31:07.569Z,13.10
2017-09-27T02:32:10.834Z,13.10
2017-09-27T02:33:13.328Z,13.10
2017-09-27T02:34:16.611Z,13.10
2017-09-27T02:35:19.107Z,13.10
2017-09-27T02:36:22.376Z,13.20
2017-09-27T02:37:24.853Z,13.20
2017-09-27T02:38:27.339Z,13.20
2017-09-27T02:39:29.840Z,13.10
2017-09-27T02:40:32.308Z,13.10
2017-09-27T02:41:34.786Z,13.10
2017-09-27T02:42:37.416Z,13.10
2017-09-27T02:43:39.872Z,13.10
2017-09-27T02:44:42.360Z,13.10
2017-09-27T02:45:44.844Z,13.20
2017-09-27T02:46:47.346Z,13.20
2017-09-27T02:47:49.843Z,13.20
2017-09-27T02:48:52.546Z,13.20
2017-09-27T02:49:55.927Z,13.20
2017-09-27T02:50:58.743Z,13.10
2017-09-27T02:52:01.213Z,13.20
2017-09-27T02:53:03.698Z,13.20
2017-09-27T02:54:06.243Z,13.20
2017-09-27T02:55:08.752Z,13.20
2017-09-27T02:56:11.291Z,13.20
2017-09-27T02:57:13.770Z,13.20
2017-09-27T02:58:17.014Z,13.10
2017-09-27T02:59:19.483Z,13.10
2017-09-27T03:00:21.995Z,13.20
2017-09-27T03:01:24.479Z,13.10
2017-09-27T03:02:26.986Z,13.10
2017-09-27T03:03:29.453Z,13.20
2017-09-27T03:04:32.685Z,13.10
2017-09-27T03:05:35.946Z,13.20
2017-09-27T03:06:38.419Z,13.10
2017-09-27T03:07:40.893Z,13.20
2017-09-27T03:08:44.154Z,13.20
2017-09-27T03:09:46.637Z,13.10
2017-09-27T03:10:49.123Z,13.20
2017-09-27T03:11:51.593Z,13.20
2017-09-27T03:12:54.913Z,13.10
2017-09-27T03:13:57.409Z,13.10
2017-09-27T03:14:59.881Z,13.10
2017-09-27T03:16:03.150Z,13.10
2017-09-27T03:17:06.430Z,13.00
2017-09-27T03:18:08.932Z,13.10
2017-09-27T03:19:11.399Z,13.10
2017-09-27T03:20:13.954Z,13.10
2017-09-27T03:21:17.190Z,13.10
2017-09-27T03:22:20.540Z,13.10
2017-09-27T03:23:23.919Z,13.10
2017-09-27T03:24:26.390Z,13.10
2017-09-27T03:25:28.933Z,13.10
2017-09-27T03:26:31.390Z,13.10
2017-09-27T03:27:33.858Z,13.10
2017-09-27T03:28:36.323Z,13.10
2017-09-27T03:29:38.786Z,13.10
2017-09-27T03:30:41.447Z,13.10
2017-09-27T03:31:43.914Z,13.10
2017-09-27T03:32:46.415Z,13.10
2017-09-27T03:33:50.095Z,13.10
2017-09-27T03:34:52.559Z,13.10
2017-09-27T03:35:55.151Z,13.10
2017-09-27T03:36:57.663Z,13.10
2017-09-27T03:38:00.181Z,13.10
2017-09-27T03:39:03.428Z,13.10
2017-09-27T03:40:06.670Z,13.10
2017-09-27T03:41:09.918Z,13.10
2017-09-27T03:42:12.416Z,13.00
2017-09-27T03:43:15.650Z,13.10
2017-09-27T03:44:18.125Z,13.00
2017-09-27T03:45:20.850Z,13.10
2017-09-27T03:46:23.345Z,13.10
2017-09-27T03:47:26.701Z,13.10
2017-09-27T03:48:29.195Z,13.00
2017-09-27T03:49:31.676Z,13.10
2017-09-27T03:50:34.172Z,13.00
2017-09-27T03:51:37.425Z,13.00
2017-09-27T03:52:39.946Z,13.00
2017-09-27T03:53:43.187Z,13.10
2017-09-27T03:54:46.523Z,13.10
2017-09-27T03:55:49.753Z,13.10
2017-09-27T03:56:52.988Z,13.00
2017-09-27T03:57:55.499Z,13.00
2017-09-27T03:58:58.011Z,13.00
2017-09-27T04:00:00.513Z,13.00
2017-09-27T04:01:03.006Z,13.00
2017-09-27T04:02:06.244Z,13.00
2017-09-27T04:03:08.707Z,13.00
2017-09-27T04:04:11.555Z,13.00
2017-09-27T04:05:14.168Z,13.10
2017-09-27T04:06:16.632Z,13.10
2017-09-27T04:07:19.103Z,13.00
2017-09-27T04:08:21.571Z,13.10
2017-09-27T04:09:24.038Z,13.00
2017-09-27T04:10:27.377Z,13.00
2017-09-27T04:11:30.656Z,13.00
2017-09-27T04:12:33.148Z,13.00
2017-09-27T04:13:36.402Z,13.00
2017-09-27T04:14:39.373Z,13.00
2017-09-27T04:15:41.881Z,13.00
2017-09-27T04:16:44.730Z,13.00
2017-09-27T04:17:47.214Z,13.00
2017-09-27T04:18:49.674Z,13.00
2017-09-27T04:19:52.147Z,13.00
2017-09-27T04:20:55.418Z,13.00
2017-09-27T04:21:57.893Z,13.00
2017-09-27T04:23:00.367Z,13.00
2017-09-27T04:24:02.843Z,13.00
2017-09-27T04:25:05.346Z,13.00
2017-09-27T04:26:07.842Z,13.00
2017-09-27T04:27:10.326Z,13.00
2017-09-27T04:28:12.902Z,13.00
2017-09-27T04:29:15.364Z,13.00
2017-09-27T04:30:17.828Z,13.00
2017-09-27T04:31:21.086Z,13.00
2017-09-27T04:32:23.559Z,13.00
2017-09-27T04:33:26.065Z,13.00
2017-09-27T04:34:28.534Z,13.00
2017-09-27T04:35:31.854Z,13.00
2017-09-27T04:36:35.024Z,13.00
2017-09-27T04:37:38.281Z,13.00
2017-09-27T04:38:40.793Z,13.00
2017-09-27T04:39:44.074Z,13.00
2017-09-27T04:40:46.550Z,13.00
2017-09-27T04:41:49.822Z,13.00
2017-09-27T04:42:52.297Z,13.00
2017-09-27T04:43:54.870Z,13.00
2017-09-27T04:44:58.218Z,13.00
2017-09-27T04:46:00.714Z,12.90
2017-09-27T04:47:03.186Z,13.00
2017-09-27T04:48:05.654Z,13.00
2017-09-27T04:49:08.218Z,13.00
2017-09-27T04:50:10.698Z,13.00
2017-09-27T04:51:13.279Z,13.00
2017-09-27T04:52:15.754Z,13.00
2017-09-27T04:53:18.938Z,13.00
2017-09-27T04:54:21.430Z,13.00
2017-09-27T04:55:23.903Z,12.90
2017-09-27T04:56:26.429Z,13.00
2017-09-27T04:57:28.965Z,13.00
2017-09-27T04:58:31.424Z,13.00
2017-09-27T04:59:33.885Z,13.00
2017-09-27T05:00:36.395Z,13.00
2017-09-27T05:01:39.618Z,13.00
2017-09-27T05:02:42.090Z,13.00
2017-09-27T05:03:44.674Z,13.00
2017-09-27T05:04:47.178Z,13.00
2017-09-27T05:05:49.771Z,13.00
2017-09-27T05:06:52.333Z,13.00
2017-09-27T05:07:54.795Z,13.00
2017-09-27T05:08:58.412Z,13.00
2017-09-27T05:10:00.881Z,12.90
2017-09-27T05:11:04.136Z,13.00
2017-09-27T05:12:06.622Z,13.00
2017-09-27T05:13:09.090Z,13.00
2017-09-27T05:14:11.569Z,13.00
2017-09-27T05:15:14.034Z,13.00
2017-09-27T05:16:16.592Z,13.00
2017-09-27T05:17:19.084Z,13.00
2017-09-27T05:18:21.534Z,13.00
2017-09-27T05:19:24.031Z,13.00
2017-09-27T05:20:26.501Z,13.00
2017-09-27T05:21:29.015Z,13.00
2017-09-27T05:22:31.627Z,13.00
2017-09-27T05:23:34.097Z,13.00
2017-09-27T05:24:38.094Z,13.00
2017-09-27T05:25:40.566Z,13.00
2017-09-27T05:26:43.068Z,13.00
2017-09-27T05:27:45.545Z,13.00
2017-09-27T05:28:48.786Z,13.00
2017-09-27T05:29:52.028Z,13.10
2017-09-27T05:30:55.310Z,13.10
2017-09-27T05:31:58.558Z,13.10
2017-09-27T05:33:01.039Z,13.00
2017-09-27T05:34:04.290Z,13.00
2017-09-27T05:35:07.546Z,13.10
2017-09-27T05:36:10.027Z,13.10
2017-09-27T05:37:12.644Z,13.10
2017-09-27T05:38:15.107Z,13.10
2017-09-27T05:39:18.380Z,13.10
2017-09-27T05:40:20.848Z,13.10
2017-09-27T05:41:23.312Z,13.10
2017-09-27T05:42:26.671Z,13.10
2017-09-27T05:43:29.164Z,13.10
2017-09-27T05:44:31.674Z,13.10
2017-09-27T05:45:34.165Z,13.10
2017-09-27T05:46:36.656Z,13.10
2017-09-27T05:47:39.894Z,13.10
2017-09-27T05:48:43.131Z,13.10
2017-09-27T05:49:46.398Z,13.10
2017-09-27T05:50:48.922Z,13.10
2017-09-27T05:51:51.439Z,13.10
2017-09-27T05:52:54.674Z,13.20
2017-09-27T05:53:57.904Z,13.10
2017-09-27T05:55:01.148Z,13.20
2017-09-27T05:56:04.423Z,13.20
2017-09-27T05:57:06.938Z,13.20
2017-09-27T05:58:10.259Z,13.20
2017-09-27T05:59:12.984Z,13.20
2017-09-27T06:00:15.459Z,13.20
2017-09-27T06:01:17.968Z,13.20
2017-09-27T06:02:20.448Z,13.20
2017-09-27T06:03:22.994Z,13.20
2017-09-27T06:04:26.374Z,13.20
2017-09-27T06:05:28.838Z,13.20
2017-09-27T06:06:31.322Z,13.20
2017-09-27T06:07:33.791Z,13.20
2017-09-27T06:08:36.272Z,13.20
2017-09-27T06:09:38.760Z,13.30
2017-09-27T06:10:42.029Z,13.30
2017-09-27T06:11:44.510Z,13.20
2017-09-27T06:12:47.065Z,13.30
2017-09-27T06:13:50.315Z,13.30
2017-09-27T06:14:53.666Z,13.30
2017-09-27T06:15:56.146Z,13.30
2017-09-27T06:16:58.727Z,13.30
2017-09-27T06:18:01.206Z,13.30
2017-09-27T06:19:03.702Z,13.30
2017-09-27T06:20:06.934Z,13.30
2017-09-27T06:21:09.508Z,13.30
2017-09-27T06:22:12.070Z,13.30
2017-09-27T06:23:14.617Z,13.30
2017-09-27T06:24:17.112Z,13.30
2017-09-27T06:25:19.594Z,13.30
2017-09-27T06:26:22.075Z,13.30
2017-09-27T06:27:24.597Z,13.30
2017-09-27T06:28:27.060Z,13.30
2017-09-27T06:29:29.516Z,13.30
2017-09-27T06:30:32.803Z,13.40
2017-09-27T06:31:35.302Z,13.30
2017-09-27T06:32:37.792Z,13.30
2017-09-27T06:33:40.257Z,13.30
2017-09-27T06:34:42.724Z,13.30
2017-09-27T06:35:45.234Z,13.30
2017-09-27T06:36:47.717Z,13.30
2017-09-27T06:37:50.982Z,13.30
2017-09-27T06:38:53.891Z,13.30
2017-09-27T06:39:57.157Z,13.30
2017-09-27T06:41:00.049Z,13.30
2017-09-27T06:42:02.559Z,13.30
2017-09-27T06:43:05.019Z,13.30
2017-09-27T06:44:08.336Z,13.30
2017-09-27T06:45:10.914Z,13.30
2017-09-27T06:46:13.421Z,13.30
2017-09-27T06:47:16.706Z,13.30
2017-09-27T06:48:19.209Z,13.30
2017-09-27T06:49:21.777Z,13.30
2017-09-27T06:50:24.258Z,13.30
2017-09-27T06:51:26.755Z,13.30
2017-09-27T06:52:30.023Z,13.40
2017-09-27T06:53:32.508Z,13.30
2017-09-27T06:54:35.070Z,13.40
2017-09-27T06:55:37.535Z,13.40
2017-09-27T06:56:40.005Z,13.30
2017-09-27T06:57:43.289Z,13.40
2017-09-27T06:58:45.742Z,13.40
2017-09-27T06:59:48.217Z,13.40
2017-09-27T07:00:50.745Z,13.30
2017-09-27T07:01:53.266Z,13.40
2017-09-27T07:02:55.770Z,13.40
2017-09-27T07:03:58.244Z,13.40
2017-09-27T07:05:00.708Z,13.40
2017-09-27T07:06:03.275Z,13.40
2017-09-27T07:07:05.757Z,13.40
2017-09-27T07:08:08.310Z,13.50
2017-09-27T07:09:11.543Z,13.60
2017-09-27T07:10:15.516Z,13.50
2017-09-27T07:11:18.773Z,13.60
2017-09-27T07:12:21.289Z,13.60
2017-09-27T07:13:24.563Z,13.60
2017-09-27T07:14:27.232Z,13.50
2017-09-27T07:15:29.933Z,13.60
2017-09-27T07:16:32.441Z,13.50
2017-09-27T07:17:34.902Z,13.60
2017-09-27T07:18:37.418Z,13.60
2017-09-27T07:19:39.887Z,13.60
2017-09-27T07:20:42.362Z,13.60
2017-09-27T07:21:44.843Z,13.60
2017-09-27T07:22:47.326Z,13.60
2017-09-27T07:23:49.790Z,13.70
2017-09-27T07:24:52.290Z,13.70
2017-09-27T07:25:55.615Z,13.70
2017-09-27T07:26:58.087Z,13.70
2017-09-27T07:28:00.568Z,13.80
2017-09-27T07:29:03.040Z,13.80
2017-09-27T07:30:05.538Z,13.80
2017-09-27T07:31:08.781Z,13.80
2017-09-27T07:32:12.024Z,13.80
2017-09-27T07:33:15.268Z,13.90
2017-09-27T07:34:18.528Z,13.90
2017-09-27T07:35:21.893Z,13.90
2017-09-27T07:36:24.361Z,13.80
2017-09-27T07:37:26.831Z,13.90
2017-09-27T07:38:29.296Z,13.90
2017-09-27T07:39:31.820Z,13.90
2017-09-27T07:40:34.301Z,13.90
2017-09-27T07:41:36.781Z,13.90
2017-09-27T07:42:39.255Z,13.90
2017-09-27T07:43:41.814Z,13.90
2017-09-27T07:44:44.274Z,14.00
2017-09-27T07:45:47.518Z,14.10
2017-09-27T07:46:50.757Z,14.20
2017-09-27T07:47:53.306Z,14.20
2017-09-27T07:48:55.846Z,14.20
2017-09-27T07:49:58.364Z,14.20
2017-09-27T07:51:00.831Z,14.30
2017-09-27T07:52:04.143Z,14.30
2017-09-27T07:53:06.613Z,14.30
2017-09-27T07:54:09.118Z,14.40
2017-09-27T07:55:11.609Z,14.40
2017-09-27T07:56:14.073Z,14.40
2017-09-27T07:57:16.552Z,14.40
2017-09-27T07:58:19.029Z,14.40
2017-09-27T07:59:21.601Z,14.40
2017-09-27T08:00:24.822Z,14.40
2017-09-27T08:01:28.063Z,14.40
2017-09-27T08:02:31.297Z,14.40
2017-09-27T08:03:33.886Z,14.40
2017-09-27T08:04:36.940Z,14.50
2017-09-27T08:05:39.538Z,14.50
2017-09-27T08:06:42.222Z,14.50
2017-09-27T08:07:44.688Z,14.50
2017-09-27T08:08:47.201Z,14.50
2017-09-27T08:09:49.726Z,14.50
2017-09-27T08:10:52.204Z,14.50
2017-09-27T08:11:54.701Z,14.50
2017-09-27T08:12:57.313Z,14.50
2017-09-27T08:13:59.802Z,14.50
2017-09-27T08:15:03.048Z,14.60
2017-09-27T08:16:05.677Z,14.60
2017-09-27T08:17:08.141Z,14.60
2017-09-27T08:18:10.655Z,14.60
2017-09-27T08:19:13.176Z,14.50
2017-09-27T08:20:16.416Z,14.50
2017-09-27T08:21:19.685Z,14.40
2017-09-27T08:22:22.162Z,14.40
2017-09-27T08:23:25.397Z,14.50
2017-09-27T08:24:27.966Z,14.50
2017-09-27T08:25:30.429Z,14.50
2017-09-27T08:26:32.965Z,14.50
2017-09-27T08:27:35.425Z,14.50
2017-09-27T08:28:38.678Z,14.50
2017-09-27T08:29:41.150Z,14.60
2017-09-27T08:30:43.642Z,14.60
2017-09-27T08:31:46.268Z,14.60
2017-09-27T08:32:48.770Z,14.60
2017-09-27T08:33:52.017Z,14.70
2017-09-27T08:34:55.266Z,14.80
2017-09-27T08:35:57.750Z,14.80
2017-09-27T08:37:00.242Z,14.80
2017-09-27T08:38:02.838Z,14.80
2017-09-27T08:39:05.326Z,14.80
2017-09-27T08:40:09.305Z,14.90
2017-09-27T08:41:12.614Z,14.90
2017-09-27T08:42:15.093Z,14.90
2017-09-27T08:43:17.638Z,15.00
2017-09-27T08:44:20.155Z,15.10
2017-09-27T08:45:22.638Z,15.10
2017-09-27T08:46:25.143Z,15.10
2017-09-27T08:47:27.602Z,15.10
2017-09-27T08:48:30.871Z,15.20
2017-09-27T08:49:33.342Z,15.10
2017-09-27T08:50:35.814Z,15.20
2017-09-27T08:51:38.325Z,15.20
2017-09-27T08:52:41.553Z,15.30
2017-09-27T08:53:44.015Z,15.30
2017-09-27T08:54:46.484Z,15.30
2017-09-27T08:55:48.963Z,15.30
2017-09-27T08:56:51.486Z,15.30
2017-09-27T08:57:54.026Z,15.30
2017-09-27T08:58:56.508Z,15.40
2017-09-27T08:59:59.755Z,15.50
2017-09-27T09:01:03.012Z,15.60
2017-09-27T09:02:05.518Z,15.50
2017-09-27T09:03:08.767Z,15.50
2017-09-27T09:04:11.995Z,15.50
2017-09-27T09:05:14.471Z,15.50
2017-09-27T09:06:16.940Z,15.50
2017-09-27T09:07:19.518Z,15.50
2017-09-27T09:08:22.012Z,15.50
2017-09-27T09:09:25.369Z,15.60
2017-09-27T09:10:27.864Z,15.60
2017-09-27T09:11:30.342Z,15.60
2017-09-27T09:12:32.852Z,15.70
2017-09-27T09:13:35.545Z,15.80
2017-09-27T09:14:38.078Z,15.70
2017-09-27T09:15:40.559Z,15.70
2017-09-27T09:16:43.039Z,15.70
2017-09-27T09:17:46.271Z,15.70
2017-09-27T09:18:49.630Z,15.70
2017-09-27T09:19:52.875Z,15.70
2017-09-27T09:20:56.121Z,15.70
2017-09-27T09:21:58.604Z,15.70
2017-09-27T09:23:01.073Z,15.60
2017-09-27T09:24:04.360Z,15.60
2017-09-27T09:25:06.823Z,15.60
2017-09-27T09:26:10.068Z,15.60
2017-09-27T09:27:13.313Z,15.60
2017-09-27T09:28:16.548Z,15.70
2017-09-27T09:29:19.839Z,15.70
2017-09-27T09:30:22.352Z,15.70
2017-09-27T09:31:25.237Z,15.70
2017-09-27T09:32:27.800Z,15.80
2017-09-27T09:33:30.515Z,15.80
2017-09-27T09:34:33.792Z,15.90
2017-09-27T09:35:36.258Z,15.90
2017-09-27T09:36:39.534Z,15.90
2017-09-27T09:37:42.538Z,15.90
2017-09-27T09:38:45.083Z,16.00
2017-09-27T09:39:48.358Z,16.00
2017-09-27T09:40:50.841Z,16.00
2017-09-27T09:41:54.097Z,16.00
2017-09-27T09:42:57.361Z,16.00
2017-09-27T09:43:59.835Z,16.00
2017-09-27T09:45:02.415Z,16.00
2017-09-27T09:46:05.497Z,16.00
2017-09-27T09:47:08.079Z,16.00
2017-09-27T09:48:10.554Z,16.00
2017-09-27T09:49:13.026Z,16.00
2017-09-27T09:50:15.557Z,15.90
2017-09-27T09:51:18.032Z,15.90
2017-09-27T09:52:20.526Z,15.90
2017-09-27T09:53:23.014Z,16.00
2017-09-27T09:54:26.275Z,16.10
2017-09-27T09:55:28.762Z,16.10
2017-09-27T09:56:31.246Z,16.20
2017-09-27T09:57:33.789Z,16.40
2017-09-27T09:58:36.276Z,16.50
2017-09-27T09:59:38.742Z,16.70
2017-09-27T10:00:41.198Z,16.70
2017-09-27T10:01:43.751Z,16.80
2017-09-27T10:02:46.238Z,17.00
2017-09-27T10:03:49.517Z,17.10
2017-09-27T10:04:52.032Z,17.10
2017-09-27T10:05:55.277Z,17.30
2017-09-27T10:06:57.786Z,17.30
2017-09-27T10:08:01.074Z,17.40
2017-09-27T10:09:03.537Z,17.40
2017-09-27T10:10:06.148Z,17.50
2017-09-27T10:11:08.607Z,17.40
2017-09-27T10:12:11.942Z,17.40
2017-09-27T10:13:15.220Z,17.40
2017-09-27T10:14:17.690Z,17.40
2017-09-27T10:15:20.162Z,17.40
2017-09-27T10:16:22.641Z,17.50
2017-09-27T10:17:25.127Z,17.60
2017-09-27T10:18:27.643Z,17.70
2017-09-27T10:19:30.136Z,17.80
2017-09-27T10:20:32.625Z,17.80
2017-09-27T10:21:35.139Z,17.80
2017-09-27T10:22:37.617Z,17.90
2017-09-27T10:23:40.851Z,17.90
2017-09-27T10:24:43.410Z,17.90
2017-09-27T10:25:45.946Z,17.90
2017-09-27T10:26:48.615Z,17.90
2017-09-27T10:27:51.117Z,17.80
2017-09-27T10:28:53.603Z,17.70
2017-09-27T10:29:56.834Z,17.70
2017-09-27T10:31:00.063Z,17.70
2017-09-27T10:32:02.632Z,17.70
2017-09-27T10:33:05.155Z,17.70
2017-09-27T10:34:07.642Z,17.70
2017-09-27T10:35:10.195Z,17.70
2017-09-27T10:36:13.439Z,17.90
2017-09-27T10:37:16.778Z,18.00
2017-09-27T10:38:20.038Z,18.10
2017-09-27T10:39:22.500Z,18.10
2017-09-27T10:40:24.962Z,18.20
2017-09-27T10:41:28.238Z,18.30
2017-09-27T10:42:30.758Z,18.30
2017-09-27T10:43:33.242Z,18.40
2017-09-27T10:44:35.717Z,18.40
2017-09-27T10:45:38.209Z,18.40
2017-09-27T10:46:41.455Z,18.30
2017-09-27T10:47:44.714Z,18.30
2017-09-27T10:48:47.207Z,18.30
2017-09-27T10:49:50.518Z,18.30
2017-09-27T10:50:53.101Z,18.30
2017-09-27T10:51:56.334Z,18.40
2017-09-27T10:52:59.578Z,18.40
2017-09-27T10:54:02.831Z,18.50
2017-09-27T10:55:05.347Z,18.50
2017-09-27T10:56:08.579Z,18.70
2017-09-27T10:57:11.809Z,18.80
2017-09-27T10:58:15.802Z,18.90
2017-09-27T10:59:18.295Z,18.90
2017-09-27T11:00:20.850Z,19.00
2017-09-27T11:01:23.328Z,19.10
2017-09-27T11:02:25.819Z,19.20
2017-09-27T11:03:28.308Z,19.20
2017-09-27T11:04:31.569Z,19.20
2017-09-27T11:05:34.095Z,19.20
2017-09-27T11:06:37.314Z,19.20
2017-09-27T11:07:39.828Z,19.10
2017-09-27T11:08:42.329Z,19.20
2017-09-27T11:09:44.831Z,19.10
2017-09-27T11:10:47.322Z,19.10
2017-09-27T11:11:50.550Z,19.10
2017-09-27T11:12:53.106Z,19.10
2017-09-27T11:13:55.635Z,19.10
2017-09-27T11:14:58.723Z,19.00
2017-09-27T11:16:01.234Z,18.90
2017-09-27T11:17:03.839Z,18.90
2017-09-27T11:18:06.345Z,18.80
2017-09-27T11:19:09.756Z,18.70
2017-09-27T11:20:12.231Z,18.70
2017-09-27T11:21:14.731Z,18.60
2017-09-27T11:22:18.002Z,18.50
2017-09-27T11:23:20.471Z,18.50
2017-09-27T11:24:22.942Z,18.50
2017-09-27T11:25:25.424Z,18.40
2017-09-27T11:26:27.921Z,18.50
2017-09-27T11:27:30.415Z,18.60
2017-09-27T11:28:33.671Z,18.80
2017-09-27T11:29:36.196Z,18.80
2017-09-27T11:30:38.710Z,18.80
2017-09-27T11:31:41.193Z,18.90
2017-09-27T11:32:43.667Z,19.00
2017-09-27T11:33:46.201Z,19.10
2017-09-27T11:34:48.762Z,19.10
2017-09-27T11:35:51.230Z,19.20
2017-09-27T11:36:53.756Z,19.20
2017-09-27T11:37:56.219Z,19.30
2017-09-27T11:38:58.724Z,19.40
2017-09-27T11:40:01.239Z,19.40
2017-09-27T11:41:03.703Z,19.40
2017-09-27T11:42:06.176Z,19.50
2017-09-27T11:43:09.437Z,19.40
2017-09-27T11:44:11.959Z,19.40
2017-09-27T11:45:14.442Z,19.40
2017-09-27T11:46:16.935Z,19.50
2017-09-27T11:47:19.408Z,19.40
2017-09-27T11:48:21.950Z,19.40
2017-09-27T11:49:25.193Z,19.30
2017-09-27T11:50:27.729Z,19.30
2017-09-27T11:51:30.221Z,19.30
2017-09-27T11:52:32.699Z,19.40
2017-09-27T11:53:35.220Z,19.40
2017-09-27T11:54:38.465Z,19.40
2017-09-27T11:55:40.968Z,19.40
2017-09-27T11:56:43.435Z,19.40
2017-09-27T11:57:45.908Z,19.40
2017-09-27T11:58:49.256Z,19.50
2017-09-27T11:59:52.481Z,19.60
2017-09-27T12:00:55.743Z,19.70
2017-09-27T12:01:59.006Z,19.70
2017-09-27T12:03:01.492Z,19.70
2017-09-27T12:04:04.722Z,19.80
2017-09-27T12:05:07.262Z,19.80
2017-09-27T12:06:10.090Z,19.80
2017-09-27T12:07:13.359Z,19.70
2017-09-27T12:08:15.815Z,19.70
2017-09-27T12:09:18.274Z,19.60
2017-09-27T12:10:20.836Z,19.50
2017-09-27T12:11:23.302Z,19.40
2017-09-27T12:12:25.793Z,19.40
2017-09-27T12:13:28.284Z,19.30
2017-09-27T12:14:31.574Z,19.30
2017-09-27T12:15:34.053Z,19.30
2017-09-27T12:16:36.538Z,19.30
2017-09-27T12:17:39.036Z,19.30
2017-09-27T12:18:41.526Z,19.30
2017-09-27T12:19:44.774Z,19.10
2017-09-27T12:20:48.035Z,19.10
2017-09-27T12:21:50.522Z,19.10
2017-09-27T12:22:52.983Z,19.10
2017-09-27T12:23:55.444Z,19.10
2017-09-27T12:24:57.962Z,19.10
2017-09-27T12:26:00.494Z,19.10
2017-09-27T12:27:02.947Z,19.10
2017-09-27T12:28:05.510Z,19.10
2017-09-27T12:29:07.978Z,19.10
2017-09-27T12:30:10.443Z,19.20
2017-09-27T12:31:13.704Z,19.10
2017-09-27T12:32:16.233Z,19.10
2017-09-27T12:33:18.711Z,19.20
2017-09-27T12:34:21.274Z,19.20
2017-09-27T12:35:24.524Z,19.20
2017-09-27T12:36:27.819Z,19.20
2017-09-27T12:37:30.406Z,19.20
2017-09-27T12:38:32.875Z,19.10
2017-09-27T12:39:35.340Z,19.20
2017-09-27T12:40:38.564Z,19.10
2017-09-27T12:41:41.055Z,19.10
2017-09-27T12:42:43.528Z,19.00
2017-09-27T12:43:46.792Z,19.00
2017-09-27T12:44:49.263Z,19.00
2017-09-27T12:45:52.658Z,19.00
2017-09-27T12:46:55.131Z,19.00
2017-09-27T12:47:57.598Z,19.00
2017-09-27T12:49:00.844Z,19.10
2017-09-27T12:50:03.346Z,19.00
2017-09-27T12:51:06.569Z,19.20
2017-09-27T12:52:09.151Z,19.20
2017-09-27T12:53:11.722Z,19.30
2017-09-27T12:54:14.279Z,19.30
2017-09-27T12:55:17.538Z,19.40
2017-09-27T12:56:20.016Z,19.40
2017-09-27T12:57:22.585Z,19.30
2017-09-27T12:58:25.064Z,19.30
2017-09-27T12:59:27.624Z,19.30
2017-09-27T13:00:30.996Z,19.30
2017-09-27T13:01:33.489Z,19.30
2017-09-27T13:02:36.750Z,19.30
2017-09-27T13:03:39.218Z,19.30
2017-09-27T13:04:41.692Z,19.40
2017-09-27T13:05:44.946Z,19.30
2017-09-27T13:06:47.451Z,19.30
2017-09-27T13:07:50.805Z,19.30
2017-09-27T13:08:54.042Z,19.20
2017-09-27T13:09:57.305Z,19.20
2017-09-27T13:10:59.782Z,19.20
2017-09-27T13:12:02.254Z,19.10
2017-09-27T13:13:04.786Z,19.10
2017-09-27T13:14:07.286Z,19.10
2017-09-27T13:15:10.510Z,18.90
2017-09-27T13:16:12.973Z,18.80
2017-09-27T13:17:15.443Z,18.80
2017-09-27T13:18:17.928Z,18.80
2017-09-27T13:19:20.390Z,18.70
2017-09-27T13:20:23.645Z,18.70
2017-09-27T13:21:26.115Z,18.70
2017-09-27T13:22:28.660Z,18.70
2017-09-27T13:23:31.154Z,18.80
2017-09-27T13:24:33.690Z,18.80
2017-09-27T13:25:36.239Z,18.80
2017-09-27T13:26:38.825Z,18.80
2017-09-27T13:27:42.082Z,18.80